sensor_id;sensor_type;location;lat;lon;timestamp;temperature;humidity
2387;DHT22;49473;50.772;8.768;2023-01-28T00:02:05;2.70;99.90
2387;DHT22;49473;50.772;8.768;2023-01-28T00:04:32;2.80;99.90
2387;DHT22;49473;50.772;8.768;2023-01-28T00:06:59;2.80;99.90
2387;DHT22;49473;50.772;8.768;2023-01-28T00:09:26;2.80;99.90
2387;DHT22;49473;50.772;8.768;2023-01-28T00:11:52;2.80;99.90
2387;DHT22;49473;50.772;8.768;2023-01-28T00:14:19;2.80;99.90
2387;DHT22;49473;50.772;8.768;2023-01-28T00:16:47;2.70;99.90
2387;DHT22;49473;50.772;8.768;2023-01-28T00:19:14;2.80;99.90
2387;DHT22;49473;50.772;8.768;2023-01-28T00:21:41;2.70;99.90
2387;DHT22;49473;50.772;8.768;2023-01-28T00:24:07;2.60;99.90
2387;DHT22;49473;50.772;8.768;2023-01-28T00:26:35;2.70;99.90
2387;DHT22;49473;50.772;8.768;2023-01-28T00:29:02;2.60;99.90
2387;DHT22;49473;50.772;8.768;2023-01-28T00:31:28;2.60;99.90
2387;DHT22;49473;50.772;8.768;2023-01-28T00:33:57;2.60;99.90
2387;DHT22;49473;50.772;8.768;2023-01-28T00:36:24;2.60;99.90
2387;DHT22;49473;50.772;8.768;2023-01-28T00:38:53;2.60;99.90
2387;DHT22;49473;50.772;8.768;2023-01-28T00:41:22;2.60;99.90
2387;DHT22;49473;50.772;8.768;2023-01-28T00:43:49;2.50;99.90
2387;DHT22;49473;50.772;8.768;2023-01-28T00:46:16;2.60;99.90
2387;DHT22;49473;50.772;8.768;2023-01-28T00:48:43;2.70;99.90
2387;DHT22;49473;50.772;8.768;2023-01-28T00:51:13;2.60;99.90
2387;DHT22;49473;50.772;8.768;2023-01-28T00:53:42;2.60;99.90
2387;DHT22;49473;50.772;8.768;2023-01-28T00:56:12;2.60;99.90
2387;DHT22;49473;50.772;8.768;2023-01-28T00:58:39;2.60;99.90
2387;DHT22;49473;50.772;8.768;2023-01-28T01:01:07;2.50;99.90
2387;DHT22;49473;50.772;8.768;2023-01-28T01:03:34;2.50;99.90
2387;DHT22;49473;50.772;8.768;2023-01-28T01:06:00;2.50;99.90
2387;DHT22;49473;50.772;8.768;2023-01-28T01:08:28;2.50;99.90
2387;DHT22;49473;50.772;8.768;2023-01-28T01:11:00;2.50;99.90
2387;DHT22;49473;50.772;8.768;2023-01-28T01:13:28;2.50;99.90
2387;DHT22;49473;50.772;8.768;2023-01-28T01:16:01;2.50;99.90
2387;DHT22;49473;50.772;8.768;2023-01-28T01:18:28;2.50;99.90
2387;DHT22;49473;50.772;8.768;2023-01-28T01:20:55;2.60;99.90
2387;DHT22;49473;50.772;8.768;2023-01-28T01:23:24;2.60;99.90
2387;DHT22;49473;50.772;8.768;2023-01-28T01:25:52;2.50;99.90
2387;DHT22;49473;50.772;8.768;2023-01-28T01:28:19;2.50;99.90
2387;DHT22;49473;50.772;8.768;2023-01-28T01:30:46;2.60;99.90
2387;DHT22;49473;50.772;8.768;2023-01-28T01:33:13;2.60;99.90
2387;DHT22;49473;50.772;8.768;2023-01-28T01:35:40;2.50;99.90
2387;DHT22;49473;50.772;8.768;2023-01-28T01:38:07;2.50;99.90
2387;DHT22;49473;50.772;8.768;2023-01-28T01:40:34;2.60;99.90
2387;DHT22;49473;50.772;8.768;2023-01-28T01:43:13;2.70;99.90
2387;DHT22;49473;50.772;8.768;2023-01-28T01:45:40;2.70;99.90
2387;DHT22;49473;50.772;8.768;2023-01-28T01:48:13;2.60;99.90
2387;DHT22;49473;50.772;8.768;2023-01-28T01:50:46;2.60;99.90
2387;DHT22;49473;50.772;8.768;2023-01-28T01:53:18;2.60;99.90
2387;DHT22;49473;50.772;8.768;2023-01-28T01:55:48;2.50;99.90
2387;DHT22;49473;50.772;8.768;2023-01-28T01:58:20;2.50;99.90
2387;DHT22;49473;50.772;8.768;2023-01-28T02:00:48;2.50;99.90
2387;DHT22;49473;50.772;8.768;2023-01-28T02:03:16;2.50;99.90
2387;DHT22;49473;50.772;8.768;2023-01-28T02:05:44;2.50;99.90
2387;DHT22;49473;50.772;8.768;2023-01-28T02:08:11;2.50;99.90
2387;DHT22;49473;50.772;8.768;2023-01-28T02:10:58;2.50;99.90
2387;DHT22;49473;50.772;8.768;2023-01-28T02:13:35;2.50;99.90
2387;DHT22;49473;50.772;8.768;2023-01-28T02:16:04;2.50;99.90
2387;DHT22;49473;50.772;8.768;2023-01-28T02:18:32;2.30;99.90
2387;DHT22;49473;50.772;8.768;2023-01-28T02:21:20;2.30;99.90
2387;DHT22;49473;50.772;8.768;2023-01-28T02:24:20;2.40;99.90
2387;DHT22;49473;50.772;8.768;2023-01-28T02:27:03;2.30;99.90
2387;DHT22;49473;50.772;8.768;2023-01-28T02:29:42;2.20;99.90
2387;DHT22;49473;50.772;8.768;2023-01-28T02:32:14;2.00;99.90
2387;DHT22;49473;50.772;8.768;2023-01-28T02:34:45;1.90;99.90
2387;DHT22;49473;50.772;8.768;2023-01-28T02:37:15;1.80;99.90
2387;DHT22;49473;50.772;8.768;2023-01-28T02:39:47;1.70;99.90
2387;DHT22;49473;50.772;8.768;2023-01-28T02:42:18;1.70;99.90
2387;DHT22;49473;50.772;8.768;2023-01-28T02:44:46;1.60;99.90
2387;DHT22;49473;50.772;8.768;2023-01-28T02:47:14;1.60;99.90
2387;DHT22;49473;50.772;8.768;2023-01-28T02:50:00;1.50;99.90
2387;DHT22;49473;50.772;8.768;2023-01-28T02:52:34;1.50;99.90
2387;DHT22;49473;50.772;8.768;2023-01-28T02:55:26;1.40;99.90
2387;DHT22;49473;50.772;8.768;2023-01-28T02:58:01;1.50;99.90
2387;DHT22;49473;50.772;8.768;2023-01-28T03:00:41;1.50;99.90
2387;DHT22;49473;50.772;8.768;2023-01-28T03:03:15;1.50;99.90
2387;DHT22;49473;50.772;8.768;2023-01-28T03:05:46;1.60;99.90
2387;DHT22;49473;50.772;8.768;2023-01-28T03:08:31;1.60;99.90
2387;DHT22;49473;50.772;8.768;2023-01-28T03:11:17;1.50;99.90
2387;DHT22;49473;50.772;8.768;2023-01-28T03:14:01;1.40;99.90
2387;DHT22;49473;50.772;8.768;2023-01-28T03:16:47;1.40;99.90
2387;DHT22;49473;50.772;8.768;2023-01-28T03:19:32;1.40;99.90
2387;DHT22;49473;50.772;8.768;2023-01-28T03:22:17;1.50;99.90
2387;DHT22;49473;50.772;8.768;2023-01-28T03:25:01;1.50;99.90
2387;DHT22;49473;50.772;8.768;2023-01-28T03:27:49;1.50;99.90
2387;DHT22;49473;50.772;8.768;2023-01-28T03:30:38;1.50;99.90
2387;DHT22;49473;50.772;8.768;2023-01-28T03:33:25;1.60;99.90
2387;DHT22;49473;50.772;8.768;2023-01-28T03:36:10;1.60;99.90
2387;DHT22;49473;50.772;8.768;2023-01-28T03:38:55;1.70;99.90
2387;DHT22;49473;50.772;8.768;2023-01-28T03:41:24;1.70;99.90
2387;DHT22;49473;50.772;8.768;2023-01-28T03:43:52;1.80;99.90
2387;DHT22;49473;50.772;8.768;2023-01-28T03:46:19;1.90;99.90
2387;DHT22;49473;50.772;8.768;2023-01-28T03:48:47;1.90;99.90
2387;DHT22;49473;50.772;8.768;2023-01-28T03:51:14;1.90;99.90
2387;DHT22;49473;50.772;8.768;2023-01-28T03:53:42;1.90;99.90
2387;DHT22;49473;50.772;8.768;2023-01-28T03:56:09;2.00;99.90
2387;DHT22;49473;50.772;8.768;2023-01-28T03:58:42;1.90;99.90
2387;DHT22;49473;50.772;8.768;2023-01-28T04:01:18;2.00;99.90
2387;DHT22;49473;50.772;8.768;2023-01-28T04:03:46;2.00;99.90
2387;DHT22;49473;50.772;8.768;2023-01-28T04:06:13;2.00;99.90
2387;DHT22;49473;50.772;8.768;2023-01-28T04:08:40;2.00;99.90
2387;DHT22;49473;50.772;8.768;2023-01-28T04:11:13;2.00;99.90
2387;DHT22;49473;50.772;8.768;2023-01-28T04:13:45;2.00;99.90
2387;DHT22;49473;50.772;8.768;2023-01-28T04:16:13;2.00;99.90
2387;DHT22;49473;50.772;8.768;2023-01-28T04:18:39;2.00;99.90
2387;DHT22;49473;50.772;8.768;2023-01-28T04:21:08;2.00;99.90
2387;DHT22;49473;50.772;8.768;2023-01-28T04:23:35;2.00;99.90
2387;DHT22;49473;50.772;8.768;2023-01-28T04:26:02;1.90;99.90
2387;DHT22;49473;50.772;8.768;2023-01-28T04:28:29;1.90;99.90
2387;DHT22;49473;50.772;8.768;2023-01-28T04:30:56;1.90;99.90
2387;DHT22;49473;50.772;8.768;2023-01-28T04:33:23;1.90;99.90
2387;DHT22;49473;50.772;8.768;2023-01-28T04:35:50;1.90;99.90
2387;DHT22;49473;50.772;8.768;2023-01-28T04:38:18;2.00;99.90
2387;DHT22;49473;50.772;8.768;2023-01-28T04:40:48;1.90;99.90
2387;DHT22;49473;50.772;8.768;2023-01-28T04:43:15;1.80;99.90
2387;DHT22;49473;50.772;8.768;2023-01-28T04:45:42;1.80;99.90
2387;DHT22;49473;50.772;8.768;2023-01-28T04:48:09;1.80;99.90
2387;DHT22;49473;50.772;8.768;2023-01-28T04:50:35;1.80;99.90
2387;DHT22;49473;50.772;8.768;2023-01-28T04:53:02;1.80;99.90
2387;DHT22;49473;50.772;8.768;2023-01-28T04:55:30;1.80;99.90
2387;DHT22;49473;50.772;8.768;2023-01-28T04:57:57;1.80;99.90
2387;DHT22;49473;50.772;8.768;2023-01-28T05:00:23;1.80;99.90
2387;DHT22;49473;50.772;8.768;2023-01-28T05:02:50;1.80;99.90
2387;DHT22;49473;50.772;8.768;2023-01-28T05:05:17;1.80;99.90
2387;DHT22;49473;50.772;8.768;2023-01-28T05:07:49;1.70;99.90
2387;DHT22;49473;50.772;8.768;2023-01-28T05:10:16;1.80;99.90
2387;DHT22;49473;50.772;8.768;2023-01-28T05:12:45;1.80;99.90
2387;DHT22;49473;50.772;8.768;2023-01-28T05:15:12;1.90;99.90
2387;DHT22;49473;50.772;8.768;2023-01-28T05:17:38;1.80;99.90
2387;DHT22;49473;50.772;8.768;2023-01-28T05:20:06;1.80;99.90
2387;DHT22;49473;50.772;8.768;2023-01-28T05:22:33;1.80;99.90
2387;DHT22;49473;50.772;8.768;2023-01-28T05:25:00;1.80;99.90
2387;DHT22;49473;50.772;8.768;2023-01-28T05:27:28;1.90;99.90
2387;DHT22;49473;50.772;8.768;2023-01-28T05:29:56;1.90;99.90
2387;DHT22;49473;50.772;8.768;2023-01-28T05:32:23;1.80;99.90
2387;DHT22;49473;50.772;8.768;2023-01-28T05:34:50;1.80;99.90
2387;DHT22;49473;50.772;8.768;2023-01-28T05:37:17;1.80;99.90
2387;DHT22;49473;50.772;8.768;2023-01-28T05:39:43;1.80;99.90
2387;DHT22;49473;50.772;8.768;2023-01-28T05:42:10;1.80;99.90
2387;DHT22;49473;50.772;8.768;2023-01-28T05:44:37;1.90;99.90
2387;DHT22;49473;50.772;8.768;2023-01-28T05:47:05;2.00;99.90
2387;DHT22;49473;50.772;8.768;2023-01-28T05:49:31;2.00;99.90
2387;DHT22;49473;50.772;8.768;2023-01-28T05:51:58;2.10;99.90
2387;DHT22;49473;50.772;8.768;2023-01-28T05:54:26;2.10;99.90
2387;DHT22;49473;50.772;8.768;2023-01-28T05:56:53;2.10;99.90
2387;DHT22;49473;50.772;8.768;2023-01-28T05:59:19;2.20;99.90
2387;DHT22;49473;50.772;8.768;2023-01-28T06:01:46;2.20;99.90
2387;DHT22;49473;50.772;8.768;2023-01-28T06:04:15;2.10;99.90
2387;DHT22;49473;50.772;8.768;2023-01-28T06:06:43;2.10;99.90
2387;DHT22;49473;50.772;8.768;2023-01-28T06:09:10;2.00;99.90
2387;DHT22;49473;50.772;8.768;2023-01-28T06:11:36;1.90;99.90
2387;DHT22;49473;50.772;8.768;2023-01-28T06:14:03;1.90;99.90
2387;DHT22;49473;50.772;8.768;2023-01-28T06:16:30;1.90;99.90
2387;DHT22;49473;50.772;8.768;2023-01-28T06:18:56;1.90;99.90
2387;DHT22;49473;50.772;8.768;2023-01-28T06:21:25;1.90;99.90
2387;DHT22;49473;50.772;8.768;2023-01-28T06:23:51;1.90;99.90
2387;DHT22;49473;50.772;8.768;2023-01-28T06:26:18;2.00;99.90
2387;DHT22;49473;50.772;8.768;2023-01-28T06:28:45;2.00;99.90
2387;DHT22;49473;50.772;8.768;2023-01-28T06:31:11;2.00;99.90
2387;DHT22;49473;50.772;8.768;2023-01-28T06:33:38;2.00;99.90
2387;DHT22;49473;50.772;8.768;2023-01-28T06:36:06;2.00;99.90
2387;DHT22;49473;50.772;8.768;2023-01-28T06:38:34;1.90;99.90
2387;DHT22;49473;50.772;8.768;2023-01-28T06:41:00;2.00;99.90
2387;DHT22;49473;50.772;8.768;2023-01-28T06:43:27;1.90;99.90
2387;DHT22;49473;50.772;8.768;2023-01-28T06:45:55;1.90;99.90
2387;DHT22;49473;50.772;8.768;2023-01-28T06:48:22;1.80;99.90
2387;DHT22;49473;50.772;8.768;2023-01-28T06:50:49;1.80;99.90
2387;DHT22;49473;50.772;8.768;2023-01-28T06:53:17;1.90;99.90
2387;DHT22;49473;50.772;8.768;2023-01-28T06:55:45;1.90;99.90
2387;DHT22;49473;50.772;8.768;2023-01-28T06:58:12;1.80;99.90
2387;DHT22;49473;50.772;8.768;2023-01-28T07:00:38;1.70;99.90
2387;DHT22;49473;50.772;8.768;2023-01-28T07:03:05;1.70;99.90
2387;DHT22;49473;50.772;8.768;2023-01-28T07:05:32;1.70;99.90
2387;DHT22;49473;50.772;8.768;2023-01-28T07:07:59;1.70;99.90
2387;DHT22;49473;50.772;8.768;2023-01-28T07:10:26;1.60;99.90
2387;DHT22;49473;50.772;8.768;2023-01-28T07:12:54;1.60;99.90
2387;DHT22;49473;50.772;8.768;2023-01-28T07:15:21;1.60;99.90
2387;DHT22;49473;50.772;8.768;2023-01-28T07:17:48;1.70;99.90
2387;DHT22;49473;50.772;8.768;2023-01-28T07:20:15;1.70;99.90
2387;DHT22;49473;50.772;8.768;2023-01-28T07:22:43;1.70;99.90
2387;DHT22;49473;50.772;8.768;2023-01-28T07:25:10;1.80;99.90
2387;DHT22;49473;50.772;8.768;2023-01-28T07:27:37;1.90;99.90
2387;DHT22;49473;50.772;8.768;2023-01-28T07:30:07;2.00;99.90
2387;DHT22;49473;50.772;8.768;2023-01-28T07:32:33;2.00;99.90
2387;DHT22;49473;50.772;8.768;2023-01-28T07:35:00;1.90;99.90
2387;DHT22;49473;50.772;8.768;2023-01-28T07:37:27;1.80;99.90
2387;DHT22;49473;50.772;8.768;2023-01-28T07:39:53;1.80;99.90
2387;DHT22;49473;50.772;8.768;2023-01-28T07:42:20;1.80;99.90
2387;DHT22;49473;50.772;8.768;2023-01-28T07:44:47;1.80;99.90
2387;DHT22;49473;50.772;8.768;2023-01-28T07:47:15;1.80;99.90
2387;DHT22;49473;50.772;8.768;2023-01-28T07:49:42;1.80;99.90
2387;DHT22;49473;50.772;8.768;2023-01-28T07:52:08;1.80;99.90
2387;DHT22;49473;50.772;8.768;2023-01-28T07:54:35;1.90;99.90
2387;DHT22;49473;50.772;8.768;2023-01-28T07:57:06;1.90;99.90
2387;DHT22;49473;50.772;8.768;2023-01-28T07:59:34;1.90;99.90
2387;DHT22;49473;50.772;8.768;2023-01-28T08:02:01;1.80;99.90
2387;DHT22;49473;50.772;8.768;2023-01-28T08:04:29;1.80;99.90
2387;DHT22;49473;50.772;8.768;2023-01-28T08:06:56;1.80;99.90
2387;DHT22;49473;50.772;8.768;2023-01-28T08:09:23;1.90;99.90
2387;DHT22;49473;50.772;8.768;2023-01-28T08:11:49;1.70;99.90
2387;DHT22;49473;50.772;8.768;2023-01-28T08:14:17;1.50;99.90
2387;DHT22;49473;50.772;8.768;2023-01-28T08:16:43;1.50;99.90
2387;DHT22;49473;50.772;8.768;2023-01-28T08:19:10;1.60;99.90
2387;DHT22;49473;50.772;8.768;2023-01-28T08:21:38;1.60;99.90
2387;DHT22;49473;50.772;8.768;2023-01-28T08:24:05;1.70;99.90
2387;DHT22;49473;50.772;8.768;2023-01-28T08:26:32;1.70;99.90
2387;DHT22;49473;50.772;8.768;2023-01-28T08:28:59;1.80;99.90
2387;DHT22;49473;50.772;8.768;2023-01-28T08:31:26;1.90;99.90
2387;DHT22;49473;50.772;8.768;2023-01-28T08:33:54;1.90;99.90
2387;DHT22;49473;50.772;8.768;2023-01-28T08:36:21;2.00;99.90
2387;DHT22;49473;50.772;8.768;2023-01-28T08:38:51;2.00;99.90
2387;DHT22;49473;50.772;8.768;2023-01-28T08:41:19;1.80;99.90
2387;DHT22;49473;50.772;8.768;2023-01-28T08:43:46;1.90;99.90
2387;DHT22;49473;50.772;8.768;2023-01-28T08:46:13;2.00;99.90
2387;DHT22;49473;50.772;8.768;2023-01-28T08:48:40;1.90;99.90
2387;DHT22;49473;50.772;8.768;2023-01-28T08:51:07;2.00;99.90
2387;DHT22;49473;50.772;8.768;2023-01-28T08:53:34;1.90;99.90
2387;DHT22;49473;50.772;8.768;2023-01-28T08:56:02;1.80;99.90
2387;DHT22;49473;50.772;8.768;2023-01-28T08:58:29;2.00;99.90
2387;DHT22;49473;50.772;8.768;2023-01-28T09:00:56;2.10;99.90
2387;DHT22;49473;50.772;8.768;2023-01-28T09:03:22;2.10;99.90
2387;DHT22;49473;50.772;8.768;2023-01-28T09:05:49;2.10;99.90
2387;DHT22;49473;50.772;8.768;2023-01-28T09:08:16;2.10;99.90
2387;DHT22;49473;50.772;8.768;2023-01-28T09:10:43;2.10;99.90
2387;DHT22;49473;50.772;8.768;2023-01-28T09:13:13;2.10;99.90
2387;DHT22;49473;50.772;8.768;2023-01-28T09:15:41;2.20;99.90
2387;DHT22;49473;50.772;8.768;2023-01-28T09:18:08;2.40;99.90
2387;DHT22;49473;50.772;8.768;2023-01-28T09:20:36;2.40;99.90
2387;DHT22;49473;50.772;8.768;2023-01-28T09:23:03;2.40;99.90
2387;DHT22;49473;50.772;8.768;2023-01-28T09:25:29;2.50;99.90
2387;DHT22;49473;50.772;8.768;2023-01-28T09:27:56;2.40;99.90
2387;DHT22;49473;50.772;8.768;2023-01-28T09:30:25;2.30;99.90
2387;DHT22;49473;50.772;8.768;2023-01-28T09:32:52;2.40;99.90
2387;DHT22;49473;50.772;8.768;2023-01-28T09:35:19;2.50;99.90
2387;DHT22;49473;50.772;8.768;2023-01-28T09:37:47;2.50;99.90
2387;DHT22;49473;50.772;8.768;2023-01-28T09:40:16;2.30;99.90
2387;DHT22;49473;50.772;8.768;2023-01-28T09:42:55;2.40;99.90
2387;DHT22;49473;50.772;8.768;2023-01-28T09:45:31;2.50;99.90
2387;DHT22;49473;50.772;8.768;2023-01-28T09:48:02;2.30;99.90
2387;DHT22;49473;50.772;8.768;2023-01-28T09:50:32;2.30;99.90
2387;DHT22;49473;50.772;8.768;2023-01-28T09:53:03;2.30;99.90
2387;DHT22;49473;50.772;8.768;2023-01-28T09:55:32;2.40;99.90
2387;DHT22;49473;50.772;8.768;2023-01-28T09:58:03;2.50;99.90
2387;DHT22;49473;50.772;8.768;2023-01-28T10:00:36;2.50;99.90
2387;DHT22;49473;50.772;8.768;2023-01-28T10:03:27;2.50;99.90
2387;DHT22;49473;50.772;8.768;2023-01-28T10:06:05;2.50;99.90
2387;DHT22;49473;50.772;8.768;2023-01-28T10:08:43;2.40;99.90
2387;DHT22;49473;50.772;8.768;2023-01-28T10:11:24;2.50;99.90
2387;DHT22;49473;50.772;8.768;2023-01-28T10:14:00;2.50;99.90
2387;DHT22;49473;50.772;8.768;2023-01-28T10:16:35;2.50;99.90
2387;DHT22;49473;50.772;8.768;2023-01-28T10:19:06;2.60;99.90
2387;DHT22;49473;50.772;8.768;2023-01-28T10:21:40;2.50;99.90
2387;DHT22;49473;50.772;8.768;2023-01-28T10:24:13;2.50;99.90
2387;DHT22;49473;50.772;8.768;2023-01-28T10:26:42;2.60;99.90
2387;DHT22;49473;50.772;8.768;2023-01-28T10:29:12;2.70;99.90
2387;DHT22;49473;50.772;8.768;2023-01-28T10:31:49;2.70;99.90
2387;DHT22;49473;50.772;8.768;2023-01-28T10:34:17;2.70;99.90
2387;DHT22;49473;50.772;8.768;2023-01-28T10:36:44;2.60;99.90
2387;DHT22;49473;50.772;8.768;2023-01-28T10:39:13;2.70;99.90
2387;DHT22;49473;50.772;8.768;2023-01-28T10:41:40;2.70;99.90
2387;DHT22;49473;50.772;8.768;2023-01-28T10:44:13;2.70;99.90
2387;DHT22;49473;50.772;8.768;2023-01-28T10:46:44;2.70;99.90
2387;DHT22;49473;50.772;8.768;2023-01-28T10:49:15;2.70;99.90
2387;DHT22;49473;50.772;8.768;2023-01-28T10:51:43;2.70;99.90
2387;DHT22;49473;50.772;8.768;2023-01-28T10:54:19;2.90;99.90
2387;DHT22;49473;50.772;8.768;2023-01-28T10:56:46;2.80;99.90
2387;DHT22;49473;50.772;8.768;2023-01-28T10:59:19;2.90;99.90
2387;DHT22;49473;50.772;8.768;2023-01-28T11:01:49;3.00;99.90
2387;DHT22;49473;50.772;8.768;2023-01-28T11:04:18;3.10;99.90
2387;DHT22;49473;50.772;8.768;2023-01-28T11:06:55;3.10;99.90
2387;DHT22;49473;50.772;8.768;2023-01-28T11:09:25;3.10;99.90
2387;DHT22;49473;50.772;8.768;2023-01-28T11:11:52;2.90;99.90
2387;DHT22;49473;50.772;8.768;2023-01-28T11:14:23;3.00;99.90
2387;DHT22;49473;50.772;8.768;2023-01-28T11:16:53;2.90;99.90
2387;DHT22;49473;50.772;8.768;2023-01-28T11:19:26;2.80;99.90
2387;DHT22;49473;50.772;8.768;2023-01-28T11:21:55;2.80;99.90
2387;DHT22;49473;50.772;8.768;2023-01-28T11:24:25;2.90;99.90
2387;DHT22;49473;50.772;8.768;2023-01-28T11:26:56;3.00;99.90
2387;DHT22;49473;50.772;8.768;2023-01-28T11:29:26;2.90;99.90
2387;DHT22;49473;50.772;8.768;2023-01-28T11:31:56;2.80;99.90
2387;DHT22;49473;50.772;8.768;2023-01-28T11:34:25;2.90;99.90
2387;DHT22;49473;50.772;8.768;2023-01-28T11:36:54;3.00;99.90
2387;DHT22;49473;50.772;8.768;2023-01-28T11:39:23;2.90;99.90
2387;DHT22;49473;50.772;8.768;2023-01-28T11:41:53;2.80;99.90
2387;DHT22;49473;50.772;8.768;2023-01-28T11:44:22;2.90;99.90
2387;DHT22;49473;50.772;8.768;2023-01-28T11:47:06;3.00;99.90
2387;DHT22;49473;50.772;8.768;2023-01-28T11:49:46;3.00;99.90
2387;DHT22;49473;50.772;8.768;2023-01-28T11:52:25;3.00;99.90
2387;DHT22;49473;50.772;8.768;2023-01-28T11:55:01;3.00;99.90
2387;DHT22;49473;50.772;8.768;2023-01-28T11:57:41;3.00;99.90
2387;DHT22;49473;50.772;8.768;2023-01-28T12:00:27;2.90;99.90
2387;DHT22;49473;50.772;8.768;2023-01-28T12:03:15;3.00;99.90
2387;DHT22;49473;50.772;8.768;2023-01-28T12:05:49;3.00;99.90
2387;DHT22;49473;50.772;8.768;2023-01-28T12:08:21;3.10;99.90
2387;DHT22;49473;50.772;8.768;2023-01-28T12:11:05;3.10;99.90
2387;DHT22;49473;50.772;8.768;2023-01-28T12:13:47;2.90;99.90
2387;DHT22;49473;50.772;8.768;2023-01-28T12:16:37;2.80;99.90
2387;DHT22;49473;50.772;8.768;2023-01-28T12:19:29;3.00;99.90
2387;DHT22;49473;50.772;8.768;2023-01-28T12:22:18;3.30;99.90
2387;DHT22;49473;50.772;8.768;2023-01-28T12:25:01;3.40;99.90
2387;DHT22;49473;50.772;8.768;2023-01-28T12:27:38;3.10;99.90
2387;DHT22;49473;50.772;8.768;2023-01-28T12:30:19;3.20;99.90
2387;DHT22;49473;50.772;8.768;2023-01-28T12:32:59;3.20;99.90
2387;DHT22;49473;50.772;8.768;2023-01-28T12:35:39;3.30;99.90
2387;DHT22;49473;50.772;8.768;2023-01-28T12:38:14;3.10;99.90
2387;DHT22;49473;50.772;8.768;2023-01-28T12:40:50;2.90;99.90
2387;DHT22;49473;50.772;8.768;2023-01-28T12:43:24;2.60;99.90
2387;DHT22;49473;50.772;8.768;2023-01-28T12:45:55;2.60;99.90
2387;DHT22;49473;50.772;8.768;2023-01-28T12:48:26;2.60;99.90
2387;DHT22;49473;50.772;8.768;2023-01-28T12:50:59;2.80;99.90
2387;DHT22;49473;50.772;8.768;2023-01-28T12:53:32;2.90;99.90
2387;DHT22;49473;50.772;8.768;2023-01-28T12:56:06;2.90;99.90
2387;DHT22;49473;50.772;8.768;2023-01-28T12:58:39;3.00;99.90
2387;DHT22;49473;50.772;8.768;2023-01-28T13:01:13;3.00;99.90
2387;DHT22;49473;50.772;8.768;2023-01-28T13:03:48;3.10;99.90
2387;DHT22;49473;50.772;8.768;2023-01-28T13:06:22;3.00;99.90
2387;DHT22;49473;50.772;8.768;2023-01-28T13:08:57;3.00;99.90
2387;DHT22;49473;50.772;8.768;2023-01-28T13:11:31;2.80;99.90
2387;DHT22;49473;50.772;8.768;2023-01-28T13:13:59;2.80;99.90
2387;DHT22;49473;50.772;8.768;2023-01-28T13:16:27;2.80;99.90
2387;DHT22;49473;50.772;8.768;2023-01-28T13:19:04;2.60;99.90
2387;DHT22;49473;50.772;8.768;2023-01-28T13:21:34;2.50;99.90
2387;DHT22;49473;50.772;8.768;2023-01-28T13:24:20;2.40;99.90
2387;DHT22;49473;50.772;8.768;2023-01-28T13:26:48;2.40;99.90
2387;DHT22;49473;50.772;8.768;2023-01-28T13:29:29;2.30;99.90
2387;DHT22;49473;50.772;8.768;2023-01-28T13:31:58;2.30;99.90
2387;DHT22;49473;50.772;8.768;2023-01-28T13:34:31;2.40;99.90
2387;DHT22;49473;50.772;8.768;2023-01-28T13:37:03;2.50;99.90
2387;DHT22;49473;50.772;8.768;2023-01-28T13:39:33;2.40;99.90
2387;DHT22;49473;50.772;8.768;2023-01-28T13:42:18;2.40;99.90
2387;DHT22;49473;50.772;8.768;2023-01-28T13:44:46;2.40;99.90
2387;DHT22;49473;50.772;8.768;2023-01-28T13:47:17;2.40;99.90
2387;DHT22;49473;50.772;8.768;2023-01-28T13:49:48;2.30;99.90
2387;DHT22;49473;50.772;8.768;2023-01-28T13:52:24;2.30;99.90
2387;DHT22;49473;50.772;8.768;2023-01-28T13:54:55;2.40;99.90
2387;DHT22;49473;50.772;8.768;2023-01-28T14:00:28;2.30;99.90
2387;DHT22;49473;50.772;8.768;2023-01-28T14:03:38;2.40;99.90
2387;DHT22;49473;50.772;8.768;2023-01-28T14:06:34;2.30;99.90
2387;DHT22;49473;50.772;8.768;2023-01-28T14:09:31;2.20;99.90
2387;DHT22;49473;50.772;8.768;2023-01-28T14:12:16;2.20;99.90
2387;DHT22;49473;50.772;8.768;2023-01-28T14:15:06;2.10;99.90
2387;DHT22;49473;50.772;8.768;2023-01-28T14:17:41;2.20;99.90
2387;DHT22;49473;50.772;8.768;2023-01-28T14:20:17;2.30;99.90
2387;DHT22;49473;50.772;8.768;2023-01-28T14:22:45;2.30;99.90
2387;DHT22;49473;50.772;8.768;2023-01-28T14:25:15;2.30;99.90
2387;DHT22;49473;50.772;8.768;2023-01-28T14:27:47;2.40;99.90
2387;DHT22;49473;50.772;8.768;2023-01-28T14:30:21;2.30;99.90
2387;DHT22;49473;50.772;8.768;2023-01-28T14:32:51;2.30;99.90
2387;DHT22;49473;50.772;8.768;2023-01-28T14:35:21;2.40;99.90
2387;DHT22;49473;50.772;8.768;2023-01-28T14:37:50;2.50;99.90
2387;DHT22;49473;50.772;8.768;2023-01-28T14:40:20;2.70;99.90
2387;DHT22;49473;50.772;8.768;2023-01-28T14:42:49;2.60;99.90
2387;DHT22;49473;50.772;8.768;2023-01-28T14:45:36;2.50;99.90
2387;DHT22;49473;50.772;8.768;2023-01-28T14:48:22;2.40;99.90
2387;DHT22;49473;50.772;8.768;2023-01-28T14:51:22;2.30;99.90
2387;DHT22;49473;50.772;8.768;2023-01-28T14:54:09;2.40;99.90
2387;DHT22;49473;50.772;8.768;2023-01-28T14:56:48;2.40;99.90
2387;DHT22;49473;50.772;8.768;2023-01-28T14:59:20;2.40;99.90
2387;DHT22;49473;50.772;8.768;2023-01-28T15:01:54;2.40;99.90
2387;DHT22;49473;50.772;8.768;2023-01-28T15:04:27;2.50;99.90
2387;DHT22;49473;50.772;8.768;2023-01-28T15:06:54;2.50;99.90
2387;DHT22;49473;50.772;8.768;2023-01-28T15:09:22;2.50;99.90
2387;DHT22;49473;50.772;8.768;2023-01-28T15:11:52;2.40;99.90
2387;DHT22;49473;50.772;8.768;2023-01-28T15:14:25;2.10;99.90
2387;DHT22;49473;50.772;8.768;2023-01-28T15:16:53;2.10;99.90
2387;DHT22;49473;50.772;8.768;2023-01-28T15:19:25;2.10;99.90
2387;DHT22;49473;50.772;8.768;2023-01-28T15:21:54;2.10;99.90
2387;DHT22;49473;50.772;8.768;2023-01-28T15:24:22;2.10;99.90
2387;DHT22;49473;50.772;8.768;2023-01-28T15:26:51;2.10;99.90
2387;DHT22;49473;50.772;8.768;2023-01-28T15:29:25;2.10;99.90
2387;DHT22;49473;50.772;8.768;2023-01-28T15:31:52;1.90;99.90
2387;DHT22;49473;50.772;8.768;2023-01-28T15:34:19;1.90;99.90
2387;DHT22;49473;50.772;8.768;2023-01-28T15:36:48;2.00;99.90
2387;DHT22;49473;50.772;8.768;2023-01-28T15:39:16;2.00;99.90
2387;DHT22;49473;50.772;8.768;2023-01-28T15:41:46;2.00;99.90
2387;DHT22;49473;50.772;8.768;2023-01-28T15:44:17;1.90;99.90
2387;DHT22;49473;50.772;8.768;2023-01-28T15:46:44;1.80;99.90
2387;DHT22;49473;50.772;8.768;2023-01-28T15:49:15;1.90;99.90
2387;DHT22;49473;50.772;8.768;2023-01-28T15:51:47;2.00;99.90
2387;DHT22;49473;50.772;8.768;2023-01-28T15:54:15;2.00;99.90
2387;DHT22;49473;50.772;8.768;2023-01-28T15:56:42;2.00;99.90
2387;DHT22;49473;50.772;8.768;2023-01-28T15:59:24;1.90;99.90
2387;DHT22;49473;50.772;8.768;2023-01-28T16:02:01;1.80;99.90
2387;DHT22;49473;50.772;8.768;2023-01-28T16:04:29;1.70;99.90
2387;DHT22;49473;50.772;8.768;2023-01-28T16:06:57;1.70;99.90
2387;DHT22;49473;50.772;8.768;2023-01-28T16:09:27;1.70;99.90
2387;DHT22;49473;50.772;8.768;2023-01-28T16:12:01;1.70;99.90
2387;DHT22;49473;50.772;8.768;2023-01-28T16:14:33;1.60;99.90
2387;DHT22;49473;50.772;8.768;2023-01-28T16:17:00;1.40;99.90
2387;DHT22;49473;50.772;8.768;2023-01-28T16:19:33;1.20;99.90
2387;DHT22;49473;50.772;8.768;2023-01-28T16:22:02;1.20;99.90
2387;DHT22;49473;50.772;8.768;2023-01-28T16:24:31;1.20;99.90
2387;DHT22;49473;50.772;8.768;2023-01-28T16:27:01;1.10;99.90
2387;DHT22;49473;50.772;8.768;2023-01-28T16:29:30;1.10;99.90
2387;DHT22;49473;50.772;8.768;2023-01-28T16:31:57;1.00;99.90